createdAt,value
2022-11-05T00:00:54.942Z,101544.63
2022-11-05T00:06:15.451Z,101534.81
2022-11-05T00:11:40.119Z,101548.50
2022-11-05T00:16:45.903Z,101550.88
2022-11-05T00:22:06.190Z,101570.81
2022-11-05T00:27:10.835Z,101568.81
2022-11-05T00:32:14.285Z,101561.50
2022-11-05T00:37:17.271Z,101577.13
2022-11-05T00:42:39.083Z,101583.94
2022-11-05T00:48:00.971Z,101588.00
2022-11-05T00:53:04.540Z,101595.47
2022-11-05T00:58:10.439Z,101602.25
2022-11-05T01:03:15.837Z,101596.53
2022-11-05T01:08:21.671Z,101610.25
2022-11-05T01:13:28.121Z,101616.28
2022-11-05T01:18:31.250Z,101616.91
2022-11-05T01:23:34.408Z,101616.72
2022-11-05T01:28:39.599Z,101619.03
2022-11-05T01:33:43.138Z,101617.06
2022-11-05T01:38:46.572Z,101614.13
2022-11-05T01:43:54.647Z,101614.84
2022-11-05T01:49:03.466Z,101617.06
2022-11-05T01:54:09.934Z,101617.78
2022-11-05T01:59:17.864Z,101619.22
2022-11-05T02:04:29.396Z,101610.25
2022-11-05T02:09:39.849Z,101614.50
2022-11-05T02:14:44.269Z,101612.53
2022-11-05T02:20:17.631Z,101608.59
2022-11-05T02:25:41.500Z,101602.97
2022-11-05T02:30:51.852Z,101611.44
2022-11-05T02:36:07.849Z,101613.66
2022-11-05T02:41:19.136Z,101613.53
2022-11-05T02:46:34.348Z,101621.00
2022-11-05T02:51:47.601Z,101623.41
2022-11-05T02:56:54.663Z,101613.56
2022-11-05T03:02:00.786Z,101615.88
2022-11-05T03:07:28.102Z,101612.16
2022-11-05T03:12:40.632Z,101613.66
2022-11-05T03:17:54.803Z,101618.78
2022-11-05T03:23:06.467Z,101613.25
2022-11-05T03:28:12.324Z,101615.69
2022-11-05T03:33:22.917Z,101607.66
2022-11-05T03:38:30.072Z,101599.81
2022-11-05T03:43:38.478Z,101612.75
2022-11-05T03:48:48.621Z,101603.94
2022-11-05T03:53:57.328Z,101608.53
2022-11-05T03:59:01.860Z,101620.50
2022-11-05T04:04:07.783Z,101611.25
2022-11-05T04:09:29.166Z,101624.41
2022-11-05T04:14:32.476Z,101636.06
2022-11-05T04:19:55.132Z,101638.34
2022-11-05T04:24:58.425Z,101659.84
2022-11-05T04:30:20.332Z,101660.56
2022-11-05T04:35:25.256Z,101640.97
2022-11-05T04:40:28.971Z,101655.75
2022-11-05T04:45:34.460Z,101656.81
2022-11-05T04:50:39.400Z,101649.00
2022-11-05T04:55:42.512Z,101648.00
2022-11-05T05:00:45.919Z,101650.91
2022-11-05T05:05:53.719Z,101655.63
2022-11-05T05:10:57.512Z,101646.19
2022-11-05T05:16:01.108Z,101642.56
2022-11-05T05:21:23.692Z,101654.53
2022-11-05T05:26:27.334Z,101658.84
2022-11-05T05:31:30.481Z,101658.72
2022-11-05T05:36:35.498Z,101658.72
2022-11-05T05:41:38.747Z,101667.47
2022-11-05T05:46:44.658Z,101658.72
2022-11-05T05:51:50.863Z,101663.28
2022-11-05T05:56:54.112Z,101665.97
2022-11-05T06:01:57.360Z,101675.84
2022-11-05T06:07:02.080Z,101680.44
2022-11-05T06:12:06.032Z,101681.22
2022-11-05T06:17:09.797Z,101679.44
2022-11-05T06:22:15.088Z,101685.25
2022-11-05T06:27:18.125Z,101685.88
2022-11-05T06:32:21.358Z,101692.69
2022-11-05T06:37:25.905Z,101686.03
2022-11-05T06:42:29.820Z,101692.19
2022-11-05T06:47:32.966Z,101691.06
2022-11-05T06:52:41.078Z,101690.19
2022-11-05T06:57:44.709Z,101693.50
2022-11-05T07:02:48.336Z,101698.50
2022-11-05T07:07:53.222Z,101692.88
2022-11-05T07:12:56.351Z,101694.47
2022-11-05T07:18:01.666Z,101699.50
2022-11-05T07:23:08.311Z,101695.97
2022-11-05T07:28:14.737Z,101704.59
2022-11-05T07:33:18.303Z,101710.94
2022-11-05T07:38:23.296Z,101727.59
2022-11-05T07:43:27.183Z,101726.78
2022-11-05T07:48:30.549Z,101726.09
2022-11-05T07:53:34.994Z,101718.34
2022-11-05T07:58:38.302Z,101720.19
2022-11-05T08:03:41.611Z,101729.34
2022-11-05T08:08:49.131Z,101725.19
2022-11-05T08:13:52.410Z,101715.09
2022-11-05T08:18:55.712Z,101719.19
2022-11-05T08:24:00.209Z,101726.75
2022-11-05T08:29:03.365Z,101725.94
2022-11-05T08:34:06.706Z,101737.47
2022-11-05T08:39:16.722Z,101740.53
2022-11-05T08:44:20.488Z,101731.78
2022-11-05T08:49:26.575Z,101735.97
2022-11-05T08:54:31.203Z,101731.59
2022-11-05T08:59:34.564Z,101735.78
2022-11-05T09:04:37.849Z,101737.91
2022-11-05T09:09:42.291Z,101736.47
2022-11-05T09:14:45.379Z,101738.53
2022-11-05T09:19:48.814Z,101726.94
2022-11-05T09:24:55.908Z,101732.59
2022-11-05T09:29:59.156Z,101731.78
2022-11-05T09:35:02.454Z,101737.34
2022-11-05T09:40:08.615Z,101738.06
2022-11-05T09:45:18.137Z,101742.88
2022-11-05T09:50:26.186Z,101750.41
2022-11-05T09:55:33.633Z,101759.13
2022-11-05T10:00:36.973Z,101767.16
2022-11-05T10:05:41.638Z,101775.09
2022-11-05T10:10:49.646Z,101770.28
2022-11-05T10:16:02.517Z,101758.53
2022-11-05T10:21:06.667Z,101762.72
2022-11-05T10:26:17.312Z,101760.25
2022-11-05T10:31:23.829Z,101763.97
2022-11-05T10:36:29.501Z,101764.78
2022-11-05T10:41:52.933Z,101767.22
2022-11-05T10:47:07.779Z,101766.91
2022-11-05T10:52:21.956Z,101765.44
2022-11-05T10:57:31.992Z,101758.69
2022-11-05T11:02:37.120Z,101761.34
2022-11-05T11:07:40.431Z,101756.34
2022-11-05T11:12:45.648Z,101741.75
2022-11-05T11:17:49.069Z,101742.78
2022-11-05T11:23:11.660Z,101739.00
2022-11-05T11:28:22.572Z,101753.19
2022-11-05T11:33:29.598Z,101749.28
2022-11-05T11:38:35.927Z,101750.44
2022-11-05T11:43:43.712Z,101735.84
2022-11-05T11:48:48.155Z,101744.13
2022-11-05T11:53:54.108Z,101742.19
2022-11-05T11:59:02.836Z,101737.94
2022-11-05T12:04:18.128Z,101746.81
2022-11-05T12:09:30.722Z,101747.66
2022-11-05T12:14:46.808Z,101735.53
2022-11-05T12:20:18.019Z,101724.56
2022-11-05T12:25:29.048Z,101725.13
2022-11-05T12:30:42.287Z,101728.94
2022-11-05T12:35:58.273Z,101723.13
2022-11-05T12:41:22.146Z,101713.94
2022-11-05T12:46:33.512Z,101700.84
2022-11-05T12:51:49.238Z,101695.03
2022-11-05T12:56:55.399Z,101692.59
2022-11-05T13:02:09.509Z,101672.59
2022-11-05T13:07:18.276Z,101682.53
2022-11-05T13:12:25.706Z,101675.13
2022-11-05T13:17:35.458Z,101663.31
2022-11-05T13:22:41.652Z,101654.34
2022-11-05T13:27:51.928Z,101653.22
2022-11-05T13:32:59.863Z,101645.75
2022-11-05T13:38:25.107Z,101643.53
2022-11-05T13:44:09.596Z,101642.66
2022-11-05T13:49:46.731Z,101641.50
2022-11-05T13:55:28.564Z,101645.66
2022-11-05T14:00:36.345Z,101646.34
2022-11-05T14:05:42.821Z,101655.78
2022-11-05T14:10:59.797Z,101653.53
2022-11-05T14:16:06.437Z,101662.09
2022-11-05T14:21:32.675Z,101654.59
2022-11-05T14:26:37.438Z,101662.22
2022-11-05T14:37:27.584Z,101651.41
2022-11-05T14:42:32.681Z,101657.59
2022-11-05T14:47:39.897Z,101654.00
2022-11-05T14:52:53.212Z,101649.31
2022-11-05T14:58:20.576Z,101644.09
2022-11-05T15:03:50.569Z,101644.63
2022-11-05T15:08:59.596Z,101641.91
2022-11-05T15:14:07.373Z,101642.34
2022-11-05T15:19:19.257Z,101628.91
2022-11-05T15:24:23.413Z,101631.97
2022-11-05T15:29:31.171Z,101636.97
2022-11-05T15:34:35.984Z,101627.97
2022-11-05T15:39:42.602Z,101626.81
2022-11-05T15:44:49.058Z,101620.38
2022-11-05T15:49:54.656Z,101617.34
2022-11-05T15:55:19.255Z,101615.31
2022-11-05T16:00:26.472Z,101615.09
2022-11-05T16:05:34.636Z,101614.69
2022-11-05T16:10:39.905Z,101621.41
2022-11-05T16:15:54.784Z,101612.28
2022-11-05T16:21:02.524Z,101601.47
2022-11-05T16:26:05.823Z,101607.47
2022-11-05T16:31:10.280Z,101611.25
2022-11-05T16:36:13.626Z,101612.09
2022-11-05T16:41:18.153Z,101598.84
2022-11-05T16:46:23.853Z,101606.59
2022-11-05T16:51:28.563Z,101597.69
2022-11-05T16:56:31.914Z,101589.59
2022-11-05T17:01:38.346Z,101582.31
2022-11-05T17:06:43.879Z,101589.19
2022-11-05T17:11:47.036Z,101582.13
2022-11-05T17:16:55.002Z,101586.56
2022-11-05T17:21:58.111Z,101575.94
2022-11-05T17:27:01.121Z,101587.44
2022-11-05T17:32:06.491Z,101593.53
2022-11-05T17:37:09.555Z,101616.22
2022-11-05T17:42:12.564Z,101627.56
2022-11-05T17:47:17.183Z,101623.97
2022-11-05T17:52:20.584Z,101626.66
2022-11-05T17:57:23.891Z,101621.41
2022-11-05T18:02:29.726Z,101640.78
2022-11-05T18:07:32.887Z,101642.44
2022-11-05T18:12:36.348Z,101631.78
2022-11-05T18:17:41.041Z,101631.88
2022-11-05T18:22:44.561Z,101631.94
2022-11-05T18:27:47.767Z,101624.81
2022-11-05T18:32:52.237Z,101623.00
2022-11-05T18:37:55.534Z,101617.69
2022-11-05T18:42:58.635Z,101599.19
2022-11-05T18:48:03.798Z,101603.56
2022-11-05T18:53:07.143Z,101594.78
2022-11-05T18:58:10.606Z,101589.38
2022-11-05T19:03:15.284Z,101587.50
2022-11-05T19:08:18.384Z,101578.34
2022-11-05T19:13:21.518Z,101561.31
2022-11-05T19:18:26.196Z,101543.50
2022-11-05T19:23:29.351Z,101551.50
2022-11-05T19:28:32.435Z,101547.91
2022-11-05T19:33:37.831Z,101550.53
2022-11-05T19:38:41.655Z,101537.53
2022-11-05T19:43:45.449Z,101531.28
2022-11-05T19:48:50.280Z,101546.03
2022-11-05T19:53:55.296Z,101535.44
2022-11-05T19:58:59.719Z,101530.69
2022-11-05T20:04:04.932Z,101525.81
2022-11-05T20:09:26.034Z,101525.44
2022-11-05T20:14:29.756Z,101532.13
2022-11-05T20:19:35.179Z,101530.25
2022-11-05T20:24:38.203Z,101536.97
2022-11-05T20:29:41.238Z,101537.41
2022-11-05T20:34:45.929Z,101539.94
2022-11-05T20:39:49.024Z,101532.91
2022-11-05T20:44:52.129Z,101530.88
2022-11-05T20:49:58.508Z,101522.00
2022-11-05T20:55:02.295Z,101526.50
2022-11-05T21:00:07.566Z,101530.88
2022-11-05T21:05:12.522Z,101526.75
2022-11-05T21:10:15.622Z,101526.66
2022-11-05T21:15:20.521Z,101528.31
2022-11-05T21:20:25.172Z,101533.41
2022-11-05T21:25:28.538Z,101534.38
2022-11-05T21:30:31.974Z,101537.25
2022-11-05T21:35:40.396Z,101534.69
2022-11-05T21:40:44.105Z,101525.19
2022-11-05T21:45:47.154Z,101513.63
2022-11-05T21:51:11.828Z,101503.34
2022-11-05T21:56:48.098Z,101517.31
2022-11-05T22:02:01.796Z,101504.63
2022-11-05T22:07:07.977Z,101500.78
2022-11-05T22:12:12.143Z,101494.41
2022-11-05T22:17:15.580Z,101495.97
2022-11-05T22:22:20.464Z,101486.25
2022-11-05T22:27:23.768Z,101488.06
2022-11-05T22:32:26.900Z,101490.66
2022-11-05T22:37:32.011Z,101478.22
2022-11-05T22:42:35.182Z,101488.56
2022-11-05T22:47:38.552Z,101483.63
2022-11-05T22:52:43.098Z,101475.75
2022-11-05T22:57:46.203Z,101463.16
2022-11-05T23:02:49.331Z,101474.38
2022-11-05T23:08:11.791Z,101470.94
2022-11-05T23:13:14.873Z,101468.25
2022-11-05T23:18:35.389Z,101458.50
2022-11-05T23:23:57.630Z,101453.84
2022-11-05T23:29:00.675Z,101447.53
2022-11-05T23:34:03.924Z,101438.13
2022-11-05T23:39:08.492Z,101434.78
2022-11-05T23:44:40.517Z,101440.00
2022-11-05T23:49:43.705Z,101425.81
2022-11-05T23:54:48.436Z,101421.47
2022-11-05T23:59:51.853Z,101432.28
